Historyczne dane pomiarowe

Dodano dane terminowe – wersja testowa.

Dane z okresu 1951-2019

Wersja bazy: 1.34 [2019-03-16, lista zmian], aktualizacja planowana na 2019-04-15

Dane meteo z obszaru Polski uzyskane na podstawie danych udostępnionych przez Instytut Meteorologii i Gospodarki Wodnej – Państwowy Instytut Badawczy.

 

Wybierz Datę:    

       

TemperaturaWilgotnośćWiatrCiśnienieOpadyŚniegCzas trwania zjawisk
 Stacja t tx tn tng RH VA  wxwx mslp ppp RRR   cm mm wxwxwxwxwxwxwx
1961-02-14 5.6 6.8 2.2 2.3 91.3- 7.7 1.0---- 0.0------------
1961-02-15 5.6 11.6 -1.7 -3.0 87.8- 1.3 3.0---- 0.0------------
1961-02-16 5.9 7.8 4.3 3.2 95.0- 8.0 1.7---- 0.1------------
1961-02-17 6.3 9.8 5.1 4.4 84.0- 3.0 3.3---- 0.0------------
1961-02-18 4.7 12.8 -2.7 -2.8 80.5- 2.7 2.0---- 0.0------------
1961-02-19 4.9 6.5 3.2 1.9 92.8- 8.0 2.7---- 0.0------------
1961-02-20 4.9 6.1 4.3 4.4 89.3- 8.0 1.0---- 0.0------------
1961-02-21 2.9 7.1 1.1 3.2 89.8- 5.3 2.3---- 0.0------------
1961-02-22 1.6 8.5 -3.7 -5.5 92.3- 2.7 1.7---- 0.0------------
1961-02-23 0.9 2.1 -0.7 -0.4 97.0- 8.0 3.3---- 0.0------------
1961-02-24 3.7 8.0 1.3 0.9 84.8- 3.0 5.7---- 0.0------------
1961-02-25 3.8 9.1 1.1 -0.5 85.3- 5.0 5.7---- 0.0------------
1961-02-26 4.3 9.6 -0.4 -1.4 81.0- 3.3 3.0---- 0.1------------
1961-02-27 8.0 12.7 3.0 -0.3 87.8- 8.0 4.3---- 12.4------------
1961-02-28 6.1 13.1 2.3 4.5 90.5- 8.0 6.3---- 7.7------------
1961-03-01 4.0 6.0 2.6- 89.3- 6.3 1.7---- 1.1------------
1961-03-02 4.8 6.5 1.1- 85.5- 8.0 4.0---- 2.9------------
1961-03-03 6.1 8.2 4.8- 91.0- 7.7 0.0---- 0.0------------
1961-03-04 6.4 11.6 2.1- 77.5- 4.7 3.3---- 0.0------------
1961-03-05 6.2 10.6 4.7- 85.5- 6.3 3.0---- 0.0------------
1961-03-06 3.2 7.2 0.5- 95.5- 5.3 1.3---- 0.0------------
1961-03-07 6.1 13.3 1.3- 84.3- 3.3 3.7---- 0.0------------
1961-03-08 5.9 12.9 0.4- 87.8- 0.0 2.7---- 0.0------------
1961-03-09 8.2 15.3 2.6- 74.0- 1.3 3.0---- 0.0------------
1961-03-10 8.9 17.4 -1.9- 67.5- 2.7 2.7---- 0.0------------
1961-03-11 8.3 11.2 6.0- 83.0- 7.7 6.0---- 0.1------------
1961-03-12 10.7 14.6 6.0- 75.0- 6.7 8.0---- 0.1------------
1961-03-13 6.0 11.3 4.3- 70.3- 6.3 6.0---- 1.8------------
1961-03-14 9.0 10.1 4.3- 89.0- 8.0 4.3---- 0.5------------
1961-03-15 11.0 13.7 8.9- 74.0- 6.0 6.0---- 0.0------------
95.7 ms

 

Źródłem pochodzenia danych jest Instytut Meteorologii i Gospodarki Wodnej – Państwowy Instytut Badawczy. Dane Instytutu Meteorologii i Gospodarki Wodnej – Państwowego Instytutu Badawczego zostały przetworzone.

Dane źródłowe można odnaleźć na stronie https://dane.imgw.pl